createdAt,value
2018-09-13T00:00:33.367Z,90.24
2018-09-13T00:02:09.730Z,91.44
2018-09-13T00:03:46.096Z,90.78
2018-09-13T00:05:21.228Z,91.37
2018-09-13T00:06:58.058Z,90.28
2018-09-13T00:08:34.936Z,90.90
2018-09-13T00:10:10.941Z,91.66
2018-09-13T00:11:47.353Z,90.72
2018-09-13T00:13:23.725Z,91.63
2018-09-13T00:15:07.430Z,90.40
2018-09-13T00:16:43.716Z,91.08
2018-09-13T00:18:19.344Z,91.07
2018-09-13T00:19:54.431Z,91.14
2018-09-13T00:21:29.704Z,91.18
2018-09-13T00:23:06.557Z,90.57
2018-09-13T00:24:41.780Z,91.04
2018-09-13T00:26:18.613Z,91.57
2018-09-13T00:27:55.692Z,91.26
2018-09-13T00:29:32.192Z,92.33
2018-09-13T00:31:08.378Z,91.72
2018-09-13T00:32:43.872Z,91.25
2018-09-13T00:34:19.496Z,92.42
2018-09-13T00:35:54.836Z,91.58
2018-09-13T00:37:30.199Z,92.10
2018-09-13T00:39:07.090Z,91.56
2018-09-13T00:40:42.031Z,92.46
2018-09-13T00:42:17.230Z,90.99
2018-09-13T00:43:52.521Z,91.45
2018-09-13T00:45:27.613Z,92.21
2018-09-13T00:47:03.267Z,91.57
2018-09-13T00:48:38.727Z,92.17
2018-09-13T00:50:15.419Z,92.78
2018-09-13T00:51:51.100Z,91.99
2018-09-13T00:53:26.127Z,92.17
2018-09-13T00:55:02.259Z,92.19
2018-09-13T00:56:37.923Z,91.95
2018-09-13T00:58:13.226Z,92.21
2018-09-13T00:59:48.588Z,92.10
2018-09-13T01:01:24.449Z,91.87
2018-09-13T01:02:59.941Z,92.14
2018-09-13T01:04:36.477Z,91.15
2018-09-13T01:06:11.733Z,91.52
2018-09-13T01:07:47.455Z,91.95
2018-09-13T01:09:23.114Z,91.91
2018-09-13T01:10:58.199Z,92.55
2018-09-13T01:12:33.736Z,92.28
2018-09-13T01:14:08.985Z,91.63
2018-09-13T01:15:44.205Z,92.59
2018-09-13T01:19:19.215Z,92.50
2018-09-13T01:20:54.224Z,91.92
2018-09-13T01:22:29.547Z,92.46
2018-09-13T01:24:04.682Z,92.28
2018-09-13T01:25:41.087Z,92.16
2018-09-13T01:27:16.494Z,91.88
2018-09-13T01:28:51.621Z,91.90
2018-09-13T01:30:26.807Z,91.64
2018-09-13T01:32:03.319Z,91.29
2018-09-13T01:33:38.570Z,92.11
2018-09-13T01:35:14.144Z,92.10
2018-09-13T01:36:49.324Z,91.79
2018-09-13T01:38:24.687Z,92.17
2018-09-13T01:40:02.917Z,92.12
2018-09-13T01:41:38.914Z,92.36
2018-09-13T01:43:14.447Z,91.64
2018-09-13T01:44:50.510Z,92.93
2018-09-13T01:46:25.875Z,92.64
2018-09-13T01:48:01.301Z,92.30
2018-09-13T01:49:37.196Z,92.61
2018-09-13T01:51:12.915Z,92.21
2018-09-13T01:52:47.751Z,91.21
2018-09-13T01:54:23.131Z,92.27
2018-09-13T01:55:58.102Z,92.19
2018-09-13T01:57:33.213Z,92.18
2018-09-13T01:59:08.333Z,92.67
2018-09-13T02:00:44.996Z,92.46
2018-09-13T02:02:20.052Z,92.34
2018-09-13T02:03:55.316Z,91.55
2018-09-13T02:05:30.143Z,91.89
2018-09-13T02:07:05.646Z,92.53
2018-09-13T02:08:41.240Z,91.95
2018-09-13T02:10:16.040Z,92.28
2018-09-13T02:11:50.831Z,92.34
2018-09-13T02:13:25.783Z,91.92
2018-09-13T02:15:04.392Z,93.11
2018-09-13T02:16:39.482Z,92.75
2018-09-13T02:18:14.641Z,92.40
2018-09-13T02:19:49.816Z,92.97
2018-09-13T02:21:24.764Z,92.70
2018-09-13T02:23:00.381Z,92.93
2018-09-13T02:24:35.356Z,92.28
2018-09-13T02:26:10.516Z,92.52
2018-09-13T02:27:45.558Z,92.79
2018-09-13T02:29:20.448Z,92.93
2018-09-13T02:30:56.002Z,92.49
2018-09-13T02:32:31.174Z,92.86
2018-09-13T02:34:06.292Z,92.61
2018-09-13T02:35:41.417Z,92.43
2018-09-13T02:37:16.630Z,92.90
2018-09-13T02:38:51.805Z,92.89
2018-09-13T02:40:26.927Z,93.37
2018-09-13T02:42:02.552Z,92.99
2018-09-13T02:44:51.583Z,92.72
2018-09-13T02:46:26.856Z,93.66
2018-09-13T02:48:02.162Z,93.01
2018-09-13T02:49:37.242Z,93.11
2018-09-13T02:51:12.295Z,92.88
2018-09-13T02:52:47.945Z,93.45
2018-09-13T02:54:23.531Z,93.20
2018-09-13T02:55:58.339Z,93.04
2018-09-13T02:57:33.198Z,93.14
2018-09-13T02:59:08.000Z,93.21
2018-09-13T03:00:43.224Z,93.42
2018-09-13T03:02:18.634Z,93.21
2018-09-13T03:03:54.495Z,93.33
2018-09-13T03:05:29.462Z,93.38
2018-09-13T03:07:04.776Z,94.21
2018-09-13T03:08:40.145Z,94.33
2018-09-13T03:10:15.514Z,93.18
2018-09-13T03:11:50.539Z,93.39
2018-09-13T03:13:25.519Z,93.40
2018-09-13T03:15:00.637Z,93.48
2018-09-13T03:16:35.576Z,93.00
2018-09-13T03:18:11.122Z,94.03
2018-09-13T03:19:45.997Z,92.82
2018-09-13T03:21:21.191Z,93.54
2018-09-13T03:22:57.368Z,93.50
2018-09-13T03:24:33.106Z,93.37
2018-09-13T03:26:08.194Z,94.42
2018-09-13T03:27:43.344Z,93.96
2018-09-13T03:29:18.469Z,94.28
2018-09-13T03:30:54.327Z,93.65
2018-09-13T03:32:30.130Z,94.73
2018-09-13T03:34:05.163Z,93.80
2018-09-13T03:35:40.031Z,93.98
2018-09-13T03:37:15.048Z,93.17
2018-09-13T03:38:49.997Z,94.21
2018-09-13T03:40:25.295Z,93.87
2018-09-13T03:42:00.899Z,93.92
2018-09-13T03:43:35.867Z,94.17
2018-09-13T03:45:16.669Z,93.99
2018-09-13T03:46:53.763Z,93.66
2018-09-13T03:48:28.975Z,93.96
2018-09-13T03:50:03.899Z,94.60
2018-09-13T03:51:39.160Z,93.92
2018-09-13T03:53:26.596Z,93.70
2018-09-13T03:55:11.724Z,94.49
2018-09-13T03:56:56.539Z,94.16
2018-09-13T03:58:32.054Z,94.13
2018-09-13T04:00:08.681Z,94.12
2018-09-13T04:01:43.586Z,94.24
2018-09-13T04:03:18.909Z,94.07
2018-09-13T04:04:53.961Z,94.45
2018-09-13T04:06:31.661Z,93.70
2018-09-13T04:08:07.622Z,94.45
2018-09-13T04:09:42.424Z,94.40
2018-09-13T04:11:17.958Z,94.17
2018-09-13T04:12:53.180Z,93.94
2018-09-13T04:14:28.080Z,94.67
2018-09-13T04:16:06.007Z,95.13
2018-09-13T04:17:42.845Z,94.25
2018-09-13T04:19:19.463Z,94.12
2018-09-13T04:20:54.277Z,94.45
2018-09-13T04:22:29.297Z,94.62
2018-09-13T04:24:05.658Z,94.06
2018-09-13T04:25:40.441Z,94.88
2018-09-13T04:27:15.808Z,94.66
2018-09-13T04:28:51.115Z,94.52
2018-09-13T04:30:26.403Z,94.78
2018-09-13T04:32:02.356Z,94.68
2018-09-13T04:33:37.363Z,94.61
2018-09-13T04:35:13.322Z,94.61
2018-09-13T04:36:48.155Z,93.84
2018-09-13T04:38:23.206Z,94.53
2018-09-13T04:39:58.440Z,94.84
2018-09-13T04:41:38.200Z,94.91
2018-09-13T04:43:16.570Z,95.21
2018-09-13T04:44:51.969Z,94.89
2018-09-13T04:46:27.381Z,94.95
2018-09-13T04:48:03.215Z,95.02
2018-09-13T04:49:38.594Z,94.77
2018-09-13T04:51:13.855Z,94.75
2018-09-13T04:52:49.696Z,94.86
2018-09-13T04:54:24.857Z,94.08
2018-09-13T04:56:00.540Z,94.76
2018-09-13T04:57:37.037Z,94.53
2018-09-13T04:59:12.478Z,95.22
2018-09-13T05:00:48.045Z,94.57
2018-09-13T05:27:37.697Z,96.31
2018-09-13T05:29:15.236Z,95.61
2018-09-13T05:30:50.100Z,95.56
2018-09-13T05:32:25.876Z,95.35
2018-09-13T05:34:02.125Z,95.51
2018-09-13T05:35:37.032Z,95.44
2018-09-13T05:37:12.163Z,95.99
2018-09-13T05:38:47.043Z,95.64
2018-09-13T05:40:22.364Z,96.03
2018-09-13T05:41:57.270Z,95.96
2018-09-13T05:43:32.737Z,95.81
2018-09-13T05:45:07.759Z,96.11
2018-09-13T05:47:01.987Z,95.67
2018-09-13T05:48:37.312Z,96.25
2018-09-13T05:50:14.192Z,95.77
2018-09-13T05:51:49.384Z,96.00
2018-09-13T05:53:24.992Z,96.25
2018-09-13T05:55:00.445Z,96.33
2018-09-13T05:56:36.137Z,96.07
2018-09-13T05:58:11.795Z,96.12
2018-09-13T05:59:47.198Z,95.90
2018-09-13T06:01:23.365Z,96.19
2018-09-13T06:03:03.497Z,96.51
2018-09-13T06:04:38.677Z,96.20
2018-09-13T06:06:14.698Z,96.62
2018-09-13T06:07:51.440Z,96.26
2018-09-13T06:09:26.637Z,96.03
2018-09-13T06:11:01.894Z,95.77
2018-09-13T06:12:36.921Z,96.28
2018-09-13T06:14:12.024Z,96.51
2018-09-13T06:15:47.672Z,96.51
2018-09-13T06:17:22.630Z,96.33
2018-09-13T06:19:03.218Z,96.63
2018-09-13T06:20:39.577Z,96.21
2018-09-13T06:22:15.359Z,96.37
2018-09-13T06:23:51.281Z,96.18
2018-09-13T06:25:30.006Z,96.42
2018-09-13T06:27:06.159Z,97.04
2018-09-13T06:28:41.234Z,96.56
2018-09-13T06:30:17.655Z,96.35
2018-09-13T06:31:53.370Z,96.48
2018-09-13T06:33:30.322Z,96.47
2018-09-13T06:35:05.263Z,96.98
2018-09-13T06:36:41.217Z,96.57
2018-09-13T06:38:17.352Z,97.35
2018-09-13T06:39:54.867Z,96.49
2018-09-13T06:41:29.844Z,97.06
2018-09-13T06:43:05.650Z,97.19
2018-09-13T06:44:41.708Z,97.18
2018-09-13T06:46:17.016Z,96.67
2018-09-13T06:47:52.148Z,96.89
2018-09-13T06:49:28.342Z,96.36
2018-09-13T06:51:03.268Z,95.90
2018-09-13T06:52:38.759Z,96.56
2018-09-13T06:54:13.844Z,96.43
2018-09-13T06:55:50.287Z,96.99
2018-09-13T06:57:25.350Z,96.86
2018-09-13T06:59:03.517Z,96.84
2018-09-13T07:00:38.554Z,97.09
2018-09-13T07:02:13.836Z,97.17
2018-09-13T07:03:48.793Z,97.13
2018-09-13T07:05:25.597Z,96.86
2018-09-13T07:07:01.226Z,97.17
2018-09-13T07:08:37.351Z,97.13
2018-09-13T07:10:16.550Z,97.18
2018-09-13T07:11:55.810Z,96.64
2018-09-13T07:13:33.074Z,97.41
2018-09-13T07:15:14.158Z,96.66
2018-09-13T07:16:51.545Z,96.64
2018-09-13T07:18:27.793Z,97.06
2018-09-13T07:21:44.967Z,97.37
2018-09-13T07:23:19.963Z,97.44
2018-09-13T07:24:55.390Z,97.09
2018-09-13T07:26:30.754Z,97.33
2018-09-13T07:28:07.001Z,97.39
2018-09-13T07:29:41.993Z,97.19
2018-09-13T07:31:18.176Z,97.41
2018-09-13T07:32:53.475Z,97.23
2018-09-13T07:34:28.885Z,96.94
2018-09-13T07:36:04.161Z,97.83
2018-09-13T07:37:39.409Z,97.12
2018-09-13T07:39:16.678Z,96.96
2018-09-13T07:40:52.278Z,97.57
2018-09-13T07:42:28.708Z,97.97
2018-09-13T07:44:04.844Z,97.50
2018-09-13T07:45:41.724Z,97.41
2018-09-13T07:47:17.172Z,97.40
2018-09-13T07:48:56.709Z,97.48
2018-09-13T07:50:31.849Z,97.15
2018-09-13T07:52:09.147Z,98.29
2018-09-13T07:53:46.201Z,97.39
2018-09-13T07:55:21.693Z,97.44
2018-09-13T07:56:56.939Z,97.38
2018-09-13T07:58:33.064Z,97.44
2018-09-13T08:00:11.658Z,97.41
2018-09-13T08:01:50.275Z,97.84
2018-09-13T08:03:26.246Z,97.63
2018-09-13T08:05:02.297Z,98.02
2018-09-13T08:06:40.274Z,97.61
2018-09-13T08:08:15.825Z,97.44
2018-09-13T08:09:52.096Z,97.10
2018-09-13T08:11:31.619Z,97.23
2018-09-13T08:13:12.486Z,97.61
2018-09-13T08:14:52.652Z,97.66
2018-09-13T08:16:32.606Z,97.68
2018-09-13T08:18:09.749Z,97.31
2018-09-13T08:19:45.801Z,97.70
2018-09-13T08:21:22.716Z,97.31
2018-09-13T08:23:03.503Z,97.81
2018-09-13T08:24:42.806Z,97.64
2018-09-13T08:26:20.468Z,97.65
2018-09-13T08:27:59.016Z,97.16
2018-09-13T08:29:34.909Z,97.33
2018-09-13T08:31:11.699Z,97.92
2018-09-13T08:32:48.331Z,97.56
2018-09-13T08:34:27.359Z,97.58
2018-09-13T08:36:04.196Z,97.70
2018-09-13T08:37:39.902Z,97.20
2018-09-13T08:39:16.335Z,96.93
2018-09-13T08:40:52.893Z,97.63
2018-09-13T08:42:30.195Z,98.00
2018-09-13T08:44:08.041Z,96.41
2018-09-13T08:45:45.211Z,97.53
2018-09-13T08:47:21.261Z,97.27
2018-09-13T08:48:58.111Z,96.61
2018-09-13T08:50:36.168Z,96.87
2018-09-13T08:52:13.687Z,97.70
2018-09-13T08:53:51.376Z,96.64
2018-09-13T08:55:27.925Z,96.53
2018-09-13T08:57:05.497Z,96.87
2018-09-13T08:58:42.063Z,96.32
2018-09-13T09:00:19.264Z,96.45
2018-09-13T09:01:56.332Z,96.71
2018-09-13T09:03:31.937Z,96.63
2018-09-13T09:05:09.591Z,96.48
2018-09-13T09:06:46.885Z,96.16
2018-09-13T09:08:25.284Z,96.10
2018-09-13T09:10:00.417Z,96.23
2018-09-13T09:11:37.732Z,96.22
2018-09-13T09:13:20.405Z,96.41
2018-09-13T09:14:58.613Z,95.87
2018-09-13T09:16:37.252Z,95.91
2018-09-13T09:18:15.995Z,95.28
2018-09-13T09:19:52.446Z,95.42
2018-09-13T09:21:28.159Z,95.60
2018-09-13T09:23:05.248Z,95.78
2018-09-13T09:24:41.534Z,95.94
2018-09-13T09:26:26.209Z,95.22
2018-09-13T09:28:07.660Z,95.00
2018-09-13T09:29:44.813Z,95.46
2018-09-13T09:31:27.599Z,94.69
2018-09-13T09:33:06.121Z,95.03
2018-09-13T09:34:41.322Z,95.30
2018-09-13T09:36:17.919Z,95.27
2018-09-13T09:37:59.072Z,95.54
2018-09-13T09:39:34.362Z,94.93
2018-09-13T09:41:10.869Z,95.63
2018-09-13T09:42:48.317Z,95.31
2018-09-13T09:44:24.333Z,95.26
2018-09-13T09:45:59.882Z,95.05
2018-09-13T09:47:35.091Z,94.89
2018-09-13T09:49:10.452Z,95.25
2018-09-13T09:50:46.449Z,94.99
2018-09-13T09:52:24.418Z,95.41
2018-09-13T09:54:00.358Z,94.84
2018-09-13T09:55:35.285Z,95.08
2018-09-13T09:57:10.739Z,95.37
2018-09-13T09:58:46.079Z,95.18
2018-09-13T10:00:28.285Z,95.10
2018-09-13T10:02:08.281Z,94.72
2018-09-13T10:04:01.276Z,95.10
2018-09-13T10:05:36.340Z,94.93
2018-09-13T10:07:11.731Z,95.30
2018-09-13T10:08:47.483Z,95.04
2018-09-13T10:10:23.305Z,94.66
2018-09-13T10:11:58.332Z,94.13
2018-09-13T10:13:33.297Z,94.77
2018-09-13T10:15:13.421Z,94.40
2018-09-13T10:16:54.017Z,94.73
2018-09-13T10:18:35.572Z,94.33
2018-09-13T10:20:17.490Z,94.89
2018-09-13T10:21:58.594Z,94.68
2018-09-13T10:23:39.929Z,94.79
2018-09-13T10:25:21.146Z,94.28
2018-09-13T10:27:01.759Z,94.29
2018-09-13T10:28:42.295Z,94.17
2018-09-13T10:30:22.716Z,93.90
2018-09-13T10:34:03.716Z,94.67
2018-09-13T10:35:43.658Z,94.32
2018-09-13T10:37:23.593Z,94.01
2018-09-13T10:39:03.772Z,93.79
2018-09-13T10:40:44.806Z,94.22
2018-09-13T10:42:25.226Z,94.10
2018-09-13T10:44:05.217Z,94.28
2018-09-13T10:45:45.124Z,94.40
2018-09-13T10:47:25.674Z,94.06
2018-09-13T10:49:08.457Z,94.30
2018-09-13T10:51:01.274Z,93.57
2018-09-13T10:52:40.709Z,93.95
2018-09-13T10:54:23.109Z,93.83
2018-09-13T10:55:58.143Z,93.70
2018-09-13T10:57:38.079Z,94.38
2018-09-13T10:59:13.336Z,94.06
2018-09-13T11:00:48.478Z,93.60
2018-09-13T11:02:23.682Z,94.20
2018-09-13T11:03:58.666Z,93.32
2018-09-13T11:05:34.186Z,93.53
2018-09-13T11:07:10.766Z,93.32
2018-09-13T11:08:50.135Z,93.57
2018-09-13T11:10:25.647Z,93.88
2018-09-13T11:12:01.372Z,93.47
2018-09-13T11:13:41.317Z,93.53
2018-09-13T11:15:22.583Z,93.54
2018-09-13T11:16:57.690Z,93.46
2018-09-13T11:18:43.207Z,93.49
2018-09-13T11:20:18.220Z,92.40
2018-09-13T11:21:53.895Z,92.90
2018-09-13T11:23:29.070Z,92.24
2018-09-13T11:25:04.356Z,92.76
2018-09-13T11:26:39.370Z,92.52
2018-09-13T11:29:24.274Z,92.56
2018-09-13T11:31:02.662Z,91.76
2018-09-13T11:32:38.039Z,91.65
2018-09-13T11:34:13.569Z,92.37
2018-09-13T11:35:50.834Z,92.20
2018-09-13T11:37:26.693Z,92.19
2018-09-13T11:39:02.115Z,91.52
2018-09-13T11:40:41.415Z,91.39
2018-09-13T11:42:17.901Z,92.05
2018-09-13T11:44:57.993Z,92.25
2018-09-13T11:46:33.613Z,92.04
2018-09-13T11:48:10.890Z,92.08
2018-09-13T11:51:28.927Z,92.39
2018-09-13T11:53:04.281Z,92.54
2018-09-13T11:54:39.163Z,91.80
2018-09-13T11:56:17.029Z,92.00
2018-09-13T11:57:56.214Z,92.08
2018-09-13T11:59:39.187Z,92.60
2018-09-13T12:01:20.556Z,92.66
2018-09-13T12:03:01.717Z,92.28
2018-09-13T12:04:41.122Z,92.41
2018-09-13T12:06:18.427Z,91.97
2018-09-13T12:07:55.077Z,92.20
2018-09-13T12:09:30.913Z,92.39
2018-09-13T12:11:07.777Z,92.11
2018-09-13T12:12:43.379Z,92.60
2018-09-13T12:14:19.207Z,92.91
2018-09-13T12:15:56.801Z,92.35
2018-09-13T12:17:33.581Z,92.03
2018-09-13T12:19:13.260Z,92.58
2018-09-13T12:20:49.145Z,91.84
2018-09-13T12:22:25.784Z,92.30
2018-09-13T12:24:02.750Z,92.22
2018-09-13T12:25:41.391Z,92.33
2018-09-13T12:27:19.687Z,92.46
2018-09-13T12:29:00.468Z,92.67
2018-09-13T12:30:40.276Z,92.08
2018-09-13T12:32:22.292Z,92.67
2018-09-13T12:33:58.881Z,92.81
2018-09-13T12:35:36.331Z,91.99
2018-09-13T12:37:13.731Z,92.62
2018-09-13T12:38:52.209Z,92.96
2018-09-13T12:40:31.699Z,91.97
2018-09-13T12:42:08.064Z,92.56
2018-09-13T12:43:45.772Z,92.07
2018-09-13T12:45:23.480Z,92.79
2018-09-13T12:47:00.445Z,92.23
2018-09-13T12:48:37.548Z,92.52
2018-09-13T12:50:16.768Z,92.38
2018-09-13T12:51:53.062Z,92.14
2018-09-13T12:53:30.441Z,92.41
2018-09-13T12:55:08.488Z,92.37
2018-09-13T12:56:52.129Z,92.15
2018-09-13T12:58:31.749Z,92.94
2018-09-13T13:00:15.632Z,92.62
2018-09-13T13:01:55.974Z,92.18
2018-09-13T13:03:33.687Z,92.62
2018-09-13T13:05:11.125Z,92.58
2018-09-13T13:06:48.636Z,92.08
2018-09-13T13:08:25.075Z,92.28
2018-09-13T13:10:02.059Z,92.43
2018-09-13T13:11:37.655Z,92.94
2018-09-13T13:13:13.840Z,92.55
2018-09-13T13:14:57.762Z,92.82
2018-09-13T13:16:34.328Z,92.89
2018-09-13T13:18:12.240Z,92.14
2018-09-13T13:19:49.080Z,92.47
2018-09-13T13:21:25.365Z,92.73
2018-09-13T13:23:03.644Z,92.60
2018-09-13T13:24:41.679Z,93.05
2018-09-13T13:26:19.815Z,92.56
2018-09-13T13:27:56.854Z,92.43
2018-09-13T13:29:33.926Z,93.13
2018-09-13T13:31:15.998Z,93.28
2018-09-13T13:32:51.437Z,92.94
2018-09-13T13:34:29.147Z,91.96
2018-09-13T13:36:10.132Z,92.99
2018-09-13T13:37:49.220Z,92.10
2018-09-13T13:39:25.578Z,93.07
2018-09-13T13:41:02.160Z,92.54
2018-09-13T13:42:38.274Z,92.46
2018-09-13T13:44:13.743Z,92.75
2018-09-13T13:45:50.232Z,92.74
2018-09-13T13:47:25.598Z,92.24
2018-09-13T13:49:01.815Z,92.21
2018-09-13T13:50:37.224Z,92.63
2018-09-13T13:52:13.382Z,93.24
2018-09-13T13:53:49.353Z,92.81
2018-09-13T13:55:25.781Z,92.40
2018-09-13T13:57:02.327Z,92.78
2018-09-13T13:58:38.864Z,92.98
2018-09-13T14:00:18.379Z,93.26
2018-09-13T14:01:54.572Z,92.92
2018-09-13T14:03:30.269Z,92.21
2018-09-13T14:05:07.878Z,93.00
2018-09-13T14:06:46.119Z,92.44
2018-09-13T14:16:22.246Z,92.13
2018-09-13T14:17:57.574Z,91.85
2018-09-13T14:19:36.653Z,92.39
2018-09-13T14:21:13.004Z,92.21
2018-09-13T14:22:51.922Z,92.78
2018-09-13T14:24:31.668Z,92.45
2018-09-13T14:26:07.687Z,92.15
2018-09-13T14:27:43.171Z,92.64
2018-09-13T14:29:18.490Z,92.15
2018-09-13T14:30:54.512Z,91.85
2018-09-13T14:32:29.899Z,92.26
2018-09-13T14:34:06.252Z,92.51
2018-09-13T14:35:43.676Z,92.45
2018-09-13T14:37:20.485Z,92.57
2018-09-13T14:39:00.563Z,92.20
2018-09-13T14:40:36.182Z,92.62
2018-09-13T14:42:11.125Z,91.86
2018-09-13T14:43:47.504Z,92.37
2018-09-13T14:45:23.971Z,92.02
2018-09-13T14:46:59.536Z,91.83
2018-09-13T14:48:34.957Z,92.11
2018-09-13T14:50:10.155Z,91.76
2018-09-13T14:51:45.700Z,92.28
2018-09-13T14:53:21.839Z,91.99
2018-09-13T14:54:57.321Z,92.04
2018-09-13T14:56:33.850Z,92.08
2018-09-13T14:58:11.648Z,92.60
2018-09-13T14:59:47.158Z,92.06
2018-09-13T15:01:24.640Z,92.58
2018-09-13T15:03:00.469Z,92.41
2018-09-13T15:04:36.440Z,92.62
2018-09-13T15:06:12.495Z,91.79
2018-09-13T15:07:47.723Z,92.22
2018-09-13T15:09:27.141Z,92.16
2018-09-13T15:11:02.557Z,92.85
2018-09-13T15:12:38.382Z,92.62
2018-09-13T15:14:15.433Z,92.88
2018-09-13T15:15:51.340Z,92.74
2018-09-13T15:17:32.096Z,92.89
2018-09-13T15:19:14.486Z,92.70
2018-09-13T15:20:50.400Z,92.88
2018-09-13T15:22:26.804Z,93.04
2018-09-13T15:24:01.874Z,92.76
2018-09-13T15:25:37.394Z,92.70
2018-09-13T15:27:13.656Z,92.49
2018-09-13T15:28:49.864Z,92.72
2018-09-13T15:30:26.498Z,92.99
2018-09-13T15:32:02.027Z,92.25
2018-09-13T15:33:44.282Z,92.67
2018-09-13T15:35:23.045Z,93.03
2018-09-13T15:36:58.659Z,92.54
2018-09-13T15:38:35.947Z,93.31
2018-09-13T15:40:11.727Z,93.08
2018-09-13T15:41:48.790Z,92.60
2018-09-13T15:43:24.325Z,92.58
2018-09-13T15:45:01.202Z,92.80
2018-09-13T15:46:37.393Z,92.76
2018-09-13T15:48:14.513Z,92.14
2018-09-13T15:49:50.275Z,92.48
2018-09-13T15:51:26.132Z,91.79
2018-09-13T15:53:01.228Z,92.13
2018-09-13T15:54:38.253Z,92.31
2018-09-13T15:56:14.593Z,92.44
2018-09-13T15:57:50.320Z,92.20
2018-09-13T15:59:32.347Z,91.72
2018-09-13T16:01:16.467Z,92.61
2018-09-13T16:02:53.989Z,92.29
2018-09-13T16:04:39.878Z,92.65
2018-09-13T16:07:24.507Z,92.53
2018-09-13T16:08:59.985Z,91.88
2018-09-13T16:10:35.450Z,92.34
2018-09-13T16:12:11.539Z,92.00
2018-09-13T16:13:47.384Z,91.44
2018-09-13T16:15:23.840Z,91.52
2018-09-13T16:17:05.123Z,91.81
2018-09-13T16:18:40.528Z,91.17
2018-09-13T16:20:17.235Z,91.85
2018-09-13T16:21:52.857Z,91.04
2018-09-13T16:23:29.276Z,91.43
2018-09-13T16:25:04.771Z,91.71
2018-09-13T16:26:40.884Z,91.29
2018-09-13T16:28:17.414Z,90.95
2018-09-13T16:29:53.050Z,91.08
2018-09-13T16:31:28.653Z,91.13
2018-09-13T16:33:05.436Z,90.78
2018-09-13T16:34:40.822Z,90.77
2018-09-13T16:36:26.926Z,90.59
2018-09-13T16:38:13.849Z,90.79
2018-09-13T16:39:55.396Z,90.48
2018-09-13T16:41:43.356Z,90.25
2018-09-13T16:43:23.318Z,90.60
2018-09-13T16:44:59.151Z,90.31
2018-09-13T16:46:40.255Z,89.86
2018-09-13T16:48:16.350Z,90.17
2018-09-13T16:49:51.843Z,90.10
2018-09-13T16:51:30.024Z,89.67
2018-09-13T16:53:06.066Z,90.18
2018-09-13T16:54:42.648Z,90.18
2018-09-13T16:56:17.735Z,90.65
2018-09-13T16:57:53.421Z,89.46
2018-09-13T16:59:28.838Z,89.60
2018-09-13T17:01:04.326Z,90.20
2018-09-13T17:02:46.198Z,89.37
2018-09-13T17:04:23.016Z,89.96
2018-09-13T17:06:00.217Z,89.59
2018-09-13T17:07:35.415Z,89.86
2018-09-13T17:09:11.488Z,89.81
2018-09-13T17:10:48.092Z,89.86
2018-09-13T17:12:26.419Z,89.26
2018-09-13T17:14:02.563Z,89.64
2018-09-13T17:15:42.241Z,89.81
2018-09-13T17:17:24.527Z,88.97
2018-09-13T17:19:04.890Z,89.32
2018-09-13T17:20:40.577Z,89.30
2018-09-13T17:22:16.596Z,89.82
2018-09-13T17:23:54.146Z,89.52
2018-09-13T17:25:45.649Z,89.47
2018-09-13T17:27:23.736Z,89.73
2018-09-13T17:28:59.371Z,89.54
2018-09-13T17:30:39.370Z,89.29
2018-09-13T17:32:16.628Z,90.10
2018-09-13T17:33:53.956Z,89.37
2018-09-13T17:35:32.409Z,89.52
2018-09-13T17:37:10.548Z,90.19
2018-09-13T17:38:47.352Z,89.91
2018-09-13T17:40:24.577Z,90.24
2018-09-13T17:42:00.979Z,90.50
2018-09-13T17:43:39.640Z,90.09
2018-09-13T17:45:22.618Z,89.64
2018-09-13T17:47:07.377Z,89.77
2018-09-13T17:48:46.314Z,89.88
2018-09-13T17:50:24.761Z,89.96
2018-09-13T17:52:00.448Z,90.27
2018-09-13T17:53:41.168Z,89.92
2018-09-13T17:55:17.116Z,90.33
2018-09-13T17:56:52.626Z,89.80
2018-09-13T17:58:27.626Z,90.74
2018-09-13T18:00:04.437Z,90.47
2018-09-13T18:01:40.201Z,90.42
2018-09-13T18:03:16.039Z,90.83
2018-09-13T18:04:51.528Z,90.59
2018-09-13T18:06:27.157Z,90.80
2018-09-13T18:08:05.073Z,90.54
2018-09-13T18:09:40.948Z,90.91
2018-09-13T18:11:18.578Z,90.67
2018-09-13T18:12:54.344Z,90.45
2018-09-13T18:14:30.716Z,90.90
2018-09-13T18:17:15.571Z,91.26
2018-09-13T18:18:51.658Z,90.36
2018-09-13T18:20:27.147Z,90.70
2018-09-13T18:22:04.024Z,91.00
2018-09-13T18:23:42.247Z,90.53
2018-09-13T18:25:17.963Z,91.09
2018-09-13T18:26:53.346Z,90.89
2018-09-13T18:28:30.399Z,90.91
2018-09-13T18:30:08.170Z,91.34
2018-09-13T18:31:45.640Z,91.92
2018-09-13T18:33:25.906Z,91.52
2018-09-13T18:35:03.845Z,91.23
2018-09-13T18:36:39.803Z,91.71
2018-09-13T18:38:16.253Z,91.52
2018-09-13T18:39:54.309Z,92.09
2018-09-13T18:41:31.439Z,92.28
2018-09-13T18:43:08.662Z,92.29
2018-09-13T18:44:51.422Z,92.50
2018-09-13T18:46:31.866Z,92.79
2018-09-13T18:48:09.797Z,92.70
2018-09-13T18:49:57.995Z,92.29
2018-09-13T18:51:38.240Z,92.83
2018-09-13T18:53:15.108Z,92.49
2018-09-13T18:54:58.477Z,91.92
2018-09-13T18:56:37.677Z,93.17
2018-09-13T18:58:17.961Z,92.73
2018-09-13T18:59:59.251Z,92.58
2018-09-13T19:01:35.007Z,92.99
2018-09-13T19:03:18.967Z,93.10
2018-09-13T19:05:08.478Z,92.99
2018-09-13T19:06:44.935Z,93.41
2018-09-13T19:08:28.011Z,93.42
2018-09-13T19:10:04.549Z,93.78
2018-09-13T19:11:43.040Z,93.67
2018-09-13T19:13:21.650Z,93.77
2018-09-13T19:15:00.698Z,94.18
2018-09-13T19:16:41.608Z,94.51
2018-09-13T19:18:21.382Z,93.99
2018-09-13T19:20:01.737Z,94.23
2018-09-13T19:21:41.491Z,94.17
2018-09-13T19:23:22.052Z,94.64
2018-09-13T19:25:01.140Z,94.23
2018-09-13T19:26:43.867Z,94.45
2018-09-13T19:28:25.717Z,94.41
2018-09-13T19:30:25.736Z,94.77
2018-09-13T19:32:03.378Z,94.61
2018-09-13T19:33:40.359Z,94.64
2018-09-13T19:35:16.369Z,94.83
2018-09-13T19:36:55.596Z,94.47
2018-09-13T19:38:33.725Z,94.82
2018-09-13T19:40:13.603Z,95.00
2018-09-13T19:41:49.704Z,95.16
2018-09-13T19:43:26.473Z,95.37
2018-09-13T19:45:07.215Z,95.54
2018-09-13T19:46:45.806Z,95.23
2018-09-13T19:48:25.814Z,95.47
2018-09-13T19:50:04.538Z,95.60
2018-09-13T19:51:41.660Z,95.71
2018-09-13T19:53:21.365Z,95.20
2018-09-13T19:54:59.708Z,95.60
2018-09-13T19:56:35.387Z,95.75
2018-09-13T19:58:11.206Z,95.74
2018-09-13T19:59:46.546Z,96.06
2018-09-13T20:01:27.584Z,95.94
2018-09-13T20:03:07.720Z,95.86
2018-09-13T20:04:46.764Z,95.63
2018-09-13T20:06:22.335Z,95.98
2018-09-13T20:08:00.372Z,96.48
2018-09-13T20:09:38.443Z,96.26
2018-09-13T20:11:14.090Z,96.57
2018-09-13T20:12:49.480Z,96.20
2018-09-13T20:14:29.885Z,96.32
2018-09-13T20:16:08.331Z,96.30
2018-09-13T20:17:45.491Z,96.71
2018-09-13T20:19:23.870Z,96.31
2018-09-13T20:20:59.838Z,96.72
2018-09-13T20:22:37.002Z,96.67
2018-09-13T20:24:12.197Z,96.39
2018-09-13T20:25:50.794Z,96.64
2018-09-13T20:27:28.574Z,96.47
2018-09-13T20:29:04.392Z,96.47
2018-09-13T20:30:42.983Z,96.72
2018-09-13T20:32:19.603Z,96.74
2018-09-13T20:33:58.481Z,96.77
2018-09-13T20:35:34.188Z,97.24
2018-09-13T20:37:12.111Z,96.73
2018-09-13T20:38:50.492Z,97.16
2018-09-13T20:40:31.261Z,97.06
2018-09-13T20:42:07.144Z,97.04
2018-09-13T20:43:46.532Z,97.28
2018-09-13T20:45:24.485Z,97.10
2018-09-13T20:47:03.841Z,97.60
2018-09-13T20:48:42.477Z,97.40
2018-09-13T20:50:19.298Z,97.71
2018-09-13T20:53:14.679Z,97.60
2018-09-13T20:55:24.336Z,97.66
2018-09-13T20:57:07.970Z,97.36
2018-09-13T20:58:46.257Z,97.83
2018-09-13T21:00:23.163Z,97.62
2018-09-13T21:02:01.455Z,97.91
2018-09-13T21:03:38.396Z,97.81
2018-09-13T21:05:15.376Z,97.75
2018-09-13T21:07:55.248Z,97.57
2018-09-13T21:09:30.385Z,98.13
2018-09-13T21:11:06.989Z,98.21
2018-09-13T21:12:43.565Z,97.93
2018-09-13T21:14:20.210Z,97.95
2018-09-13T21:15:57.737Z,98.03
2018-09-13T21:17:36.648Z,98.13
2018-09-13T21:19:21.666Z,97.95
2018-09-13T21:20:59.948Z,98.28
2018-09-13T21:22:40.211Z,98.00
2018-09-13T21:24:17.265Z,98.12
2018-09-13T21:25:52.419Z,98.17
2018-09-13T21:29:07.230Z,98.04
2018-09-13T21:30:44.690Z,98.30
2018-09-13T21:32:20.510Z,98.31
2018-09-13T21:33:56.506Z,98.33
2018-09-13T21:35:38.987Z,98.38
2018-09-13T21:37:16.408Z,98.39
2018-09-13T21:38:52.247Z,98.56
2018-09-13T21:40:29.060Z,98.31
2018-09-13T21:42:06.538Z,97.89